createdAt,value
2023-04-20T00:02:22.035Z,89.97
2023-04-20T00:04:49.121Z,89.48
2023-04-20T00:07:16.796Z,89.99
2023-04-20T00:09:43.900Z,89.22
2023-04-20T00:12:10.988Z,89.73
2023-04-20T00:14:38.009Z,89.16
2023-04-20T00:17:05.587Z,89.94
2023-04-20T00:19:33.407Z,90.82
2023-04-20T00:22:01.040Z,91.03
2023-04-20T00:24:28.061Z,90.68
2023-04-20T00:26:55.401Z,91.40
2023-04-20T00:29:22.538Z,91.22
2023-04-20T00:31:49.740Z,91.14
2023-04-20T00:34:16.780Z,90.73
2023-04-20T00:36:44.426Z,91.17
2023-04-20T00:39:11.448Z,91.41
2023-04-20T00:41:38.616Z,90.86
2023-04-20T00:44:14.026Z,90.86
2023-04-20T00:46:41.969Z,90.99
2023-04-20T00:49:09.623Z,90.71
2023-04-20T00:51:36.943Z,90.42
2023-04-20T00:54:04.802Z,90.19
2023-04-20T00:56:32.062Z,89.19
2023-04-20T00:58:59.190Z,89.01
2023-04-20T01:01:26.312Z,89.51
2023-04-20T01:03:54.376Z,90.05
2023-04-20T01:06:21.525Z,90.04
2023-04-20T01:08:52.149Z,89.58
2023-04-20T01:11:19.306Z,89.74
2023-04-20T01:13:46.330Z,90.07
2023-04-20T01:16:13.681Z,89.92
2023-04-20T01:18:48.434Z,89.61
2023-04-20T01:21:19.744Z,90.07
2023-04-20T01:23:47.219Z,90.05
2023-04-20T01:26:18.308Z,90.23
2023-04-20T01:28:46.232Z,90.21
2023-04-20T01:31:13.870Z,90.28
2023-04-20T01:33:41.559Z,90.45
2023-04-20T01:36:09.527Z,90.23
2023-04-20T01:38:37.250Z,89.81
2023-04-20T01:41:07.145Z,89.91
2023-04-20T01:43:36.108Z,88.88
2023-04-20T01:46:03.271Z,88.03
2023-04-20T01:48:30.312Z,89.11
2023-04-20T01:50:57.406Z,89.12
2023-04-20T01:53:25.318Z,90.59
2023-04-20T01:55:52.392Z,90.53
2023-04-20T01:58:19.384Z,90.25
2023-04-20T02:00:46.455Z,90.72
2023-04-20T02:03:13.739Z,90.87
2023-04-20T02:05:40.890Z,91.03
2023-04-20T02:08:07.912Z,90.98
2023-04-20T02:10:34.946Z,90.87
2023-04-20T02:13:01.913Z,89.49
2023-04-20T02:15:29.130Z,89.61
2023-04-20T02:17:57.431Z,89.53
2023-04-20T02:20:24.738Z,90.44
2023-04-20T02:22:51.832Z,90.32
2023-04-20T02:25:19.020Z,90.20
2023-04-20T02:27:46.047Z,90.01
2023-04-20T02:30:13.605Z,90.02
2023-04-20T02:32:40.882Z,89.89
2023-04-20T02:35:08.939Z,90.32
2023-04-20T02:37:36.172Z,90.38
2023-04-20T02:40:04.908Z,91.56
2023-04-20T02:42:32.004Z,91.72
2023-04-20T02:44:59.049Z,90.83
2023-04-20T02:47:26.056Z,90.96
2023-04-20T02:49:53.063Z,91.13
2023-04-20T02:52:20.227Z,90.64
2023-04-20T02:54:47.357Z,90.11
2023-04-20T02:57:14.425Z,90.89
2023-04-20T02:59:41.562Z,91.19
2023-04-20T03:02:08.666Z,91.40
2023-04-20T03:04:36.877Z,91.90
2023-04-20T03:07:04.932Z,91.41
2023-04-20T03:09:32.020Z,92.99
2023-04-20T03:11:59.032Z,92.76
2023-04-20T03:14:26.146Z,91.14
2023-04-20T03:16:53.341Z,92.02
2023-04-20T03:19:20.515Z,90.90
2023-04-20T03:21:47.534Z,91.52
2023-04-20T03:24:14.673Z,91.42
2023-04-20T03:26:42.079Z,91.22
2023-04-20T03:29:09.086Z,90.99
2023-04-20T03:31:36.182Z,92.77
2023-04-20T03:34:03.343Z,93.37
2023-04-20T03:36:30.370Z,93.06
2023-04-20T03:38:57.347Z,91.89
2023-04-20T03:41:24.376Z,92.30
2023-04-20T03:43:51.378Z,91.71
2023-04-20T03:46:18.668Z,92.26
2023-04-20T03:48:45.852Z,92.41
2023-04-20T03:51:12.848Z,92.20
2023-04-20T03:53:40.726Z,92.25
2023-04-20T03:56:07.971Z,92.27
2023-04-20T03:58:35.023Z,91.50
2023-04-20T04:01:07.089Z,92.22
2023-04-20T04:03:35.939Z,91.02
2023-04-20T04:06:03.878Z,90.76
2023-04-20T04:08:32.272Z,91.77
2023-04-20T04:11:00.742Z,91.20
2023-04-20T04:13:27.805Z,91.11
2023-04-20T04:15:54.842Z,90.55
2023-04-20T04:18:22.451Z,91.09
2023-04-20T04:20:49.488Z,90.84
2023-04-20T04:23:16.640Z,91.91
2023-04-20T04:25:43.662Z,92.02
2023-04-20T04:28:10.752Z,92.18
2023-04-20T04:30:37.823Z,91.42
2023-04-20T04:33:05.148Z,91.31
2023-04-20T04:35:33.450Z,92.36
2023-04-20T04:38:01.072Z,91.90
2023-04-20T04:40:28.131Z,91.34
2023-04-20T04:42:55.712Z,89.96
2023-04-20T04:45:25.400Z,90.21
2023-04-20T04:47:53.981Z,89.66
2023-04-20T04:50:22.147Z,88.30
2023-04-20T04:52:49.289Z,90.03
2023-04-20T04:55:16.736Z,90.34
2023-04-20T04:57:43.935Z,89.33
2023-04-20T05:00:12.647Z,89.32
2023-04-20T05:02:40.309Z,90.35
2023-04-20T05:05:10.030Z,89.12
2023-04-20T05:07:38.605Z,90.23
2023-04-20T05:10:07.483Z,91.75
2023-04-20T05:12:34.777Z,89.39
2023-04-20T05:15:01.894Z,88.47
2023-04-20T05:17:28.981Z,87.65
2023-04-20T05:19:55.994Z,85.34
2023-04-20T05:22:23.129Z,85.24
2023-04-20T05:24:50.215Z,85.92
2023-04-20T05:27:17.263Z,87.17
2023-04-20T05:29:44.249Z,88.07
2023-04-20T05:32:11.488Z,86.64
2023-04-20T05:34:38.475Z,85.30
2023-04-20T05:37:06.261Z,81.87
2023-04-20T05:39:33.397Z,81.42
2023-04-20T05:42:00.389Z,80.06
2023-04-20T05:44:27.384Z,80.22
2023-04-20T05:46:54.399Z,78.52
2023-04-20T05:49:21.450Z,78.16
2023-04-20T05:51:48.498Z,76.95
2023-04-20T05:54:15.712Z,78.49
2023-04-20T05:56:42.674Z,77.92
2023-04-20T05:59:10.143Z,74.18
2023-04-20T06:01:37.175Z,75.55
2023-04-20T06:04:04.358Z,71.78
2023-04-20T06:06:31.590Z,69.00
2023-04-20T06:08:59.426Z,68.60
2023-04-20T06:11:26.439Z,67.82
2023-04-20T06:13:53.438Z,66.75
2023-04-20T06:16:20.669Z,63.52
2023-04-20T06:18:47.690Z,53.10
2023-04-20T06:21:16.079Z,43.92
2023-04-20T06:23:44.499Z,40.19
2023-04-20T06:26:11.798Z,36.36
2023-04-20T06:28:38.956Z,40.07
2023-04-20T06:31:06.536Z,41.77
2023-04-20T06:33:33.625Z,40.57
2023-04-20T06:36:00.632Z,38.87
2023-04-20T06:38:27.650Z,33.45
2023-04-20T06:40:54.700Z,31.90
2023-04-20T06:43:21.681Z,29.75
2023-04-20T06:45:48.675Z,29.36
2023-04-20T06:48:30.762Z,28.42
2023-04-20T06:50:58.928Z,26.91
2023-04-20T06:53:26.280Z,25.06
2023-04-20T06:55:56.558Z,23.70
2023-04-20T06:58:23.547Z,25.83
2023-04-20T07:00:50.582Z,25.99
2023-04-20T07:03:19.172Z,27.77
2023-04-20T07:05:46.798Z,27.76
2023-04-20T07:08:15.982Z,25.81
2023-04-20T07:10:43.302Z,27.51
2023-04-20T07:13:10.299Z,28.58
2023-04-20T07:15:37.455Z,28.32
2023-04-20T07:18:04.508Z,27.72
2023-04-20T07:20:31.897Z,27.88
2023-04-20T07:22:58.956Z,28.47
2023-04-20T07:25:26.003Z,29.07
2023-04-20T07:27:53.061Z,26.57
2023-04-20T07:30:20.162Z,28.37
2023-04-20T07:32:47.183Z,28.36
2023-04-20T07:35:14.251Z,29.28
2023-04-20T07:37:41.473Z,29.49
2023-04-20T07:40:09.833Z,28.05
2023-04-20T07:42:37.480Z,27.63
2023-04-20T07:45:06.449Z,29.10
2023-04-20T07:47:37.232Z,28.73
2023-04-20T07:50:06.515Z,29.74
2023-04-20T07:52:33.864Z,29.47
2023-04-20T07:55:00.918Z,29.48
2023-04-20T07:57:29.090Z,28.77
2023-04-20T07:59:56.152Z,29.13
2023-04-20T08:02:23.313Z,28.84
2023-04-20T08:04:50.913Z,29.27
2023-04-20T08:07:18.110Z,30.23
2023-04-20T08:09:45.169Z,30.88
2023-04-20T08:12:12.284Z,28.82
2023-04-20T08:14:41.314Z,29.17
2023-04-20T08:17:08.605Z,29.31
2023-04-20T08:19:36.341Z,29.54
2023-04-20T08:22:04.571Z,30.32
2023-04-20T08:24:32.013Z,31.25
2023-04-20T08:26:59.425Z,31.25
2023-04-20T08:29:26.573Z,30.79
2023-04-20T08:31:53.748Z,31.95
2023-04-20T08:34:20.806Z,31.47
2023-04-20T08:36:48.065Z,30.74
2023-04-20T08:39:21.799Z,31.22
2023-04-20T08:41:53.963Z,31.72
2023-04-20T08:44:21.570Z,31.74
2023-04-20T08:46:50.095Z,31.83
2023-04-20T08:49:19.324Z,32.86
2023-04-20T08:51:48.023Z,32.43
2023-04-20T08:54:15.897Z,32.79
2023-04-20T08:56:46.290Z,31.97
2023-04-20T08:59:14.688Z,31.17
2023-04-20T09:01:43.158Z,32.61
2023-04-20T09:04:21.660Z,33.09
2023-04-20T09:06:51.369Z,33.68
2023-04-20T09:09:20.812Z,33.88
2023-04-20T09:11:48.740Z,33.89
2023-04-20T09:14:18.356Z,33.52
2023-04-20T09:16:53.448Z,33.52
2023-04-20T09:19:30.852Z,33.27
2023-04-20T09:22:03.916Z,34.12
2023-04-20T09:24:33.687Z,33.01
2023-04-20T09:27:02.799Z,32.74
2023-04-20T09:29:30.414Z,32.78
2023-04-20T09:31:57.639Z,31.53
2023-04-20T09:34:24.878Z,31.87
2023-04-20T09:36:55.549Z,31.17
2023-04-20T09:39:24.523Z,30.94
2023-04-20T09:41:52.714Z,31.14
2023-04-20T09:44:20.279Z,30.57
2023-04-20T09:46:47.432Z,31.14
2023-04-20T09:49:15.227Z,30.70
2023-04-20T09:51:45.435Z,30.23
2023-04-20T09:54:15.003Z,30.52
2023-04-20T09:56:42.197Z,29.79
2023-04-20T09:59:09.327Z,30.33
2023-04-20T10:01:38.210Z,30.31
2023-04-20T10:04:14.754Z,30.38
2023-04-20T10:06:55.022Z,30.41
2023-04-20T10:09:28.613Z,30.29
2023-04-20T10:12:09.956Z,28.90
2023-04-20T10:14:37.004Z,28.33
2023-04-20T10:17:09.353Z,28.62
2023-04-20T10:19:44.732Z,28.33
2023-04-20T10:22:25.140Z,28.33
2023-04-20T10:24:52.196Z,28.50
2023-04-20T10:27:23.010Z,27.54
2023-04-20T10:29:50.196Z,27.30
2023-04-20T10:32:28.795Z,26.72
2023-04-20T10:35:08.754Z,27.25
2023-04-20T10:37:46.653Z,27.81
2023-04-20T10:40:13.879Z,27.99
2023-04-20T10:42:46.968Z,28.10
2023-04-20T10:45:14.035Z,26.70
2023-04-20T10:47:41.192Z,27.16
2023-04-20T10:50:09.364Z,27.85
2023-04-20T10:52:38.697Z,28.70
2023-04-20T10:55:08.451Z,27.90
2023-04-20T10:57:36.672Z,28.59
2023-04-20T11:00:26.222Z,27.30
2023-04-20T11:02:56.630Z,26.67
2023-04-20T11:05:27.370Z,26.41
2023-04-20T11:07:59.026Z,27.76
2023-04-20T11:10:42.658Z,27.48
2023-04-20T11:13:30.899Z,26.28
2023-04-20T11:15:58.074Z,25.79
2023-04-20T11:18:25.131Z,26.64
2023-04-20T11:20:54.241Z,26.91
2023-04-20T11:23:23.422Z,25.57
2023-04-20T11:25:56.454Z,25.78
2023-04-20T11:28:23.913Z,26.28
2023-04-20T11:30:51.292Z,26.10
2023-04-20T11:33:29.965Z,26.34
2023-04-20T11:36:01.884Z,26.43
2023-04-20T11:38:34.448Z,26.75
2023-04-20T11:41:04.773Z,26.50
2023-04-20T11:43:32.580Z,26.35
2023-04-20T11:46:02.981Z,26.88
2023-04-20T11:48:33.444Z,27.99
2023-04-20T11:51:00.487Z,27.61
2023-04-20T11:53:27.462Z,27.13
2023-04-20T11:55:54.465Z,27.01
2023-04-20T11:58:21.445Z,27.32
2023-04-20T12:00:48.848Z,27.59
2023-04-20T12:03:15.981Z,26.25
2023-04-20T12:05:43.342Z,26.10
2023-04-20T12:08:10.515Z,26.31
2023-04-20T12:10:37.565Z,26.42
2023-04-20T12:13:04.671Z,26.25
2023-04-20T12:15:32.166Z,26.29
2023-04-20T12:17:59.264Z,25.85
2023-04-20T12:20:26.359Z,26.30
2023-04-20T12:22:53.444Z,26.05
2023-04-20T12:25:20.624Z,26.24
2023-04-20T12:27:49.424Z,26.14
2023-04-20T12:30:16.999Z,25.62
2023-04-20T12:32:43.977Z,25.48
2023-04-20T12:35:10.976Z,25.10
2023-04-20T12:37:38.084Z,25.51
2023-04-20T12:40:07.160Z,24.93
2023-04-20T12:42:34.203Z,24.96
2023-04-20T12:45:01.503Z,24.83
2023-04-20T12:47:28.528Z,24.38
2023-04-20T12:49:56.289Z,24.28
2023-04-20T12:52:23.378Z,24.88
2023-04-20T12:54:50.535Z,24.82
2023-04-20T12:57:17.530Z,24.84
2023-04-20T12:59:44.549Z,24.52
2023-04-20T13:02:12.152Z,24.79
2023-04-20T13:04:39.308Z,24.46
2023-04-20T13:07:07.136Z,25.42
2023-04-20T13:09:34.263Z,24.77
2023-04-20T13:12:01.368Z,25.47
2023-04-20T13:14:28.371Z,25.83
2023-04-20T13:16:55.785Z,26.13
2023-04-20T13:19:22.993Z,26.98
2023-04-20T13:21:49.970Z,26.98
2023-04-20T13:24:17.227Z,27.35
2023-04-20T13:26:44.421Z,27.09
2023-04-20T13:29:11.643Z,27.02
2023-04-20T13:31:38.892Z,27.22
2023-04-20T13:34:06.146Z,27.23
2023-04-20T13:36:33.278Z,27.52
2023-04-20T13:39:01.211Z,27.25
2023-04-20T13:41:28.173Z,26.79
2023-04-20T13:43:56.499Z,26.92
2023-04-20T13:46:23.642Z,27.06
2023-04-20T13:48:50.832Z,26.73
2023-04-20T13:51:17.824Z,27.18
2023-04-20T13:53:44.966Z,26.95
2023-04-20T13:56:11.940Z,27.25
2023-04-20T13:58:38.950Z,26.88
2023-04-20T14:01:11.008Z,27.10
2023-04-20T14:03:38.311Z,26.62
2023-04-20T14:06:05.997Z,26.66
2023-04-20T14:08:32.954Z,26.43
2023-04-20T14:11:00.013Z,25.42
2023-04-20T14:13:27.039Z,26.05
2023-04-20T14:15:54.470Z,26.55
2023-04-20T14:18:21.641Z,25.66
2023-04-20T14:20:52.298Z,25.48
2023-04-20T14:23:19.781Z,25.04
2023-04-20T14:25:46.856Z,25.15
2023-04-20T14:28:17.782Z,24.98
2023-04-20T14:30:45.987Z,25.45
2023-04-20T14:33:13.308Z,25.73
2023-04-20T14:35:40.651Z,26.01
2023-04-20T14:38:07.606Z,26.01
2023-04-20T14:40:34.679Z,25.58
2023-04-20T14:43:01.769Z,25.02
2023-04-20T14:45:29.107Z,25.24
2023-04-20T14:47:59.248Z,25.86
2023-04-20T14:50:27.648Z,25.61
2023-04-20T14:52:55.733Z,25.69
2023-04-20T14:55:25.678Z,25.96
2023-04-20T14:57:57.647Z,26.24
2023-04-20T15:00:27.813Z,26.20
2023-04-20T15:02:59.655Z,26.71
2023-04-20T15:05:28.579Z,25.31
2023-04-20T15:07:57.717Z,25.83
2023-04-20T15:10:25.096Z,25.88
2023-04-20T15:12:52.199Z,25.27
2023-04-20T15:15:19.348Z,24.95
2023-04-20T15:17:47.015Z,24.96
2023-04-20T15:20:17.121Z,25.64
2023-04-20T15:22:44.199Z,25.46
2023-04-20T15:25:11.632Z,24.85
2023-04-20T15:27:38.976Z,25.58
2023-04-20T15:30:07.573Z,25.86
2023-04-20T15:32:34.804Z,26.17
2023-04-20T15:35:02.168Z,25.90
2023-04-20T15:37:29.264Z,26.41
2023-04-20T15:39:56.284Z,26.37
2023-04-20T15:42:23.528Z,25.90
2023-04-20T15:44:50.589Z,26.41
2023-04-20T15:47:17.612Z,26.67
2023-04-20T15:49:44.669Z,26.49
2023-04-20T15:52:11.712Z,26.31
2023-04-20T15:54:39.002Z,26.32
2023-04-20T15:57:06.110Z,26.58
2023-04-20T15:59:33.289Z,26.52
2023-04-20T16:02:00.391Z,26.40
2023-04-20T16:04:27.566Z,25.81
2023-04-20T16:06:55.205Z,25.92
2023-04-20T16:09:23.750Z,26.16
2023-04-20T16:11:51.140Z,26.73
2023-04-20T16:14:18.454Z,26.94
2023-04-20T16:16:45.793Z,26.47
2023-04-20T16:19:14.582Z,26.64
2023-04-20T16:21:41.699Z,27.15
2023-04-20T16:24:08.736Z,28.01
2023-04-20T16:26:36.213Z,27.58
2023-04-20T16:29:03.621Z,28.46
2023-04-20T16:31:31.134Z,28.48
2023-04-20T16:33:58.952Z,29.32
2023-04-20T16:36:27.095Z,29.06
2023-04-20T16:38:54.093Z,28.33
2023-04-20T16:41:21.741Z,29.41
2023-04-20T16:43:48.778Z,28.96
2023-04-20T16:46:22.194Z,28.97
2023-04-20T16:48:50.870Z,29.49
2023-04-20T16:51:17.937Z,29.15
2023-04-20T16:53:45.458Z,29.45
2023-04-20T16:56:12.804Z,29.93
2023-04-20T16:58:39.775Z,30.41
2023-04-20T17:01:07.821Z,30.13
2023-04-20T17:03:35.153Z,30.13
2023-04-20T17:06:07.409Z,30.51
2023-04-20T17:08:34.760Z,30.94
2023-04-20T17:11:01.997Z,30.65
2023-04-20T17:13:28.994Z,31.10
2023-04-20T17:15:56.436Z,31.47
2023-04-20T17:18:23.538Z,31.35
2023-04-20T17:20:50.734Z,31.67
2023-04-20T17:23:18.284Z,31.73
2023-04-20T17:25:47.364Z,31.68
2023-04-20T17:28:14.762Z,32.02
2023-04-20T17:30:42.099Z,31.96
2023-04-20T17:33:12.522Z,32.14
2023-04-20T17:35:39.774Z,32.24
2023-04-20T17:38:06.852Z,32.84
2023-04-20T17:40:34.256Z,33.22
2023-04-20T17:43:02.306Z,32.94
2023-04-20T17:45:29.386Z,33.48
2023-04-20T17:47:56.550Z,33.43
2023-04-20T17:50:23.852Z,33.14
2023-04-20T17:52:51.711Z,33.41
2023-04-20T17:55:18.960Z,34.06
2023-04-20T17:57:45.987Z,33.67
2023-04-20T18:00:13.986Z,34.18
2023-04-20T18:02:41.185Z,34.00
2023-04-20T18:05:08.737Z,34.18
2023-04-20T18:07:35.844Z,34.75
2023-04-20T18:10:03.994Z,34.69
2023-04-20T18:12:30.966Z,34.89
2023-04-20T18:15:01.399Z,35.38
2023-04-20T18:17:28.568Z,35.18
2023-04-20T18:19:55.640Z,34.95
2023-04-20T18:22:24.244Z,35.17
2023-04-20T18:24:51.929Z,35.03
2023-04-20T18:27:19.089Z,35.36
2023-04-20T18:29:46.455Z,35.26
2023-04-20T18:32:16.391Z,35.58
2023-04-20T18:34:44.043Z,35.67
2023-04-20T18:37:15.002Z,35.52
2023-04-20T18:39:42.119Z,35.66
2023-04-20T18:42:09.361Z,35.95
2023-04-20T18:44:36.462Z,35.82
2023-04-20T18:47:03.505Z,35.89
2023-04-20T18:49:30.814Z,36.32
2023-04-20T18:51:57.827Z,36.62
2023-04-20T18:54:24.776Z,36.60
2023-04-20T18:56:51.884Z,36.06
2023-04-20T18:59:18.949Z,36.31
2023-04-20T19:01:46.041Z,35.99
2023-04-20T19:04:13.108Z,36.37
2023-04-20T19:06:40.317Z,36.71
2023-04-20T19:09:08.384Z,37.23
2023-04-20T19:11:35.520Z,37.67
2023-04-20T19:14:02.787Z,37.65
2023-04-20T19:16:31.567Z,37.45
2023-04-20T19:18:59.164Z,37.96
2023-04-20T19:21:27.073Z,38.26
2023-04-20T19:23:54.107Z,38.13
2023-04-20T19:26:21.436Z,38.15
2023-04-20T19:28:48.500Z,38.15
2023-04-20T19:31:16.030Z,38.25
2023-04-20T19:33:43.130Z,37.95
2023-04-20T19:36:10.270Z,38.43
2023-04-20T19:38:37.533Z,38.09
2023-04-20T19:41:06.354Z,38.48
2023-04-20T19:43:33.588Z,38.51
2023-04-20T19:46:00.875Z,38.56
2023-04-20T19:48:27.958Z,38.74
2023-04-20T19:50:59.274Z,38.53
2023-04-20T19:53:27.107Z,38.82
2023-04-20T19:55:54.288Z,38.89
2023-04-20T19:58:21.456Z,38.76
2023-04-20T20:00:48.632Z,39.01
2023-04-20T20:03:16.166Z,38.73
2023-04-20T20:05:43.882Z,39.05
2023-04-20T20:08:11.914Z,39.12
2023-04-20T20:10:39.056Z,39.49
2023-04-20T20:13:06.390Z,39.54
2023-04-20T20:15:33.461Z,39.66
2023-04-20T20:18:00.839Z,39.78
2023-04-20T20:20:30.480Z,40.55
2023-04-20T20:22:58.959Z,40.88
2023-04-20T20:25:26.546Z,40.38
2023-04-20T20:27:53.722Z,39.97
2023-04-20T20:30:20.767Z,40.27
2023-04-20T20:32:48.468Z,40.57
2023-04-20T20:35:16.514Z,40.62
2023-04-20T20:37:45.381Z,40.45
2023-04-20T20:40:16.613Z,40.76
2023-04-20T20:42:45.225Z,41.26
2023-04-20T20:45:13.905Z,41.44
2023-04-20T20:47:44.163Z,41.46
2023-04-20T20:50:16.281Z,42.23
2023-04-20T20:52:43.360Z,42.12
2023-04-20T20:55:10.722Z,42.29
2023-04-20T20:57:38.034Z,42.24
2023-04-20T21:00:09.878Z,42.79
2023-04-20T21:02:37.707Z,42.48
2023-04-20T21:05:05.921Z,43.21
2023-04-20T21:07:33.036Z,43.11
2023-04-20T21:10:00.199Z,43.52
2023-04-20T21:12:27.186Z,43.34
2023-04-20T21:14:54.393Z,43.70
2023-04-20T21:17:21.454Z,43.39
2023-04-20T21:19:48.474Z,43.72
2023-04-20T21:22:15.515Z,44.14
2023-04-20T21:24:42.504Z,44.37
2023-04-20T21:27:09.978Z,44.56
2023-04-20T21:29:37.020Z,44.78
2023-04-20T21:32:04.456Z,44.87
2023-04-20T21:34:31.723Z,44.99
2023-04-20T21:37:04.078Z,45.15
2023-04-20T21:39:32.232Z,45.30
2023-04-20T21:41:59.851Z,44.90
2023-04-20T21:44:27.332Z,45.64
2023-04-20T21:46:54.375Z,46.18
2023-04-20T21:49:21.989Z,45.97
2023-04-20T21:51:49.241Z,46.20
2023-04-20T21:54:16.294Z,46.11
2023-04-20T21:56:43.354Z,46.42
2023-04-20T21:59:10.348Z,46.81
2023-04-20T22:01:37.415Z,47.05
2023-04-20T22:04:04.794Z,47.15
2023-04-20T22:06:32.736Z,47.08
2023-04-20T22:08:59.918Z,47.75
2023-04-20T22:11:26.902Z,47.73
2023-04-20T22:13:54.058Z,47.50
2023-04-20T22:16:21.928Z,47.81
2023-04-20T22:18:49.222Z,48.09
2023-04-20T22:21:16.337Z,48.44
2023-04-20T22:23:43.307Z,48.52
2023-04-20T22:26:10.617Z,48.37
2023-04-20T22:28:37.626Z,49.09
2023-04-20T22:31:04.913Z,49.14
2023-04-20T22:33:31.916Z,49.19
2023-04-20T22:35:58.978Z,49.66
2023-04-20T22:38:26.059Z,48.94
2023-04-20T22:40:53.759Z,49.34
2023-04-20T22:43:21.635Z,49.77
2023-04-20T22:45:48.871Z,49.91
2023-04-20T22:48:15.977Z,50.50
2023-04-20T22:50:43.376Z,50.65
2023-04-20T22:53:10.395Z,50.74
2023-04-20T22:55:37.362Z,50.51
2023-04-20T22:58:04.457Z,50.87
2023-04-20T23:00:31.504Z,51.23
2023-04-20T23:02:58.611Z,51.45
2023-04-20T23:05:26.554Z,51.29
2023-04-20T23:07:54.002Z,51.73
2023-04-20T23:10:21.292Z,51.77
2023-04-20T23:12:49.641Z,51.73
2023-04-20T23:15:16.694Z,51.93
2023-04-20T23:17:43.782Z,51.63
2023-04-20T23:20:13.726Z,51.90
2023-04-20T23:22:41.037Z,51.74
2023-04-20T23:25:09.928Z,51.99
2023-04-20T23:27:37.136Z,52.65
2023-04-20T23:30:04.783Z,52.54
2023-04-20T23:32:31.910Z,52.51
2023-04-20T23:34:59.012Z,52.50
2023-04-20T23:37:26.006Z,52.73
2023-04-20T23:39:53.006Z,52.62
2023-04-20T23:42:19.959Z,52.69
2023-04-20T23:44:46.922Z,52.73
2023-04-20T23:47:15.531Z,52.56
2023-04-20T23:49:42.574Z,53.06
2023-04-20T23:52:09.582Z,52.71
2023-04-20T23:54:36.554Z,53.25
2023-04-20T23:57:03.530Z,53.49
2023-04-20T23:59:31.277Z,53.54
